createdAt,value
2018-12-14T00:02:31.223Z,95188.45
2018-12-14T00:05:00.811Z,95191.42
2018-12-14T00:07:30.290Z,95179.81
2018-12-14T00:09:59.712Z,95179.89
2018-12-14T00:12:29.173Z,95187.34
2018-12-14T00:14:58.422Z,95192.47
2018-12-14T00:17:27.741Z,95193.19
2018-12-14T00:19:57.026Z,95203.89
2018-12-14T00:22:26.508Z,95202.13
2018-12-14T00:24:55.931Z,95207.65
2018-12-14T00:27:25.487Z,95209.86
2018-12-14T00:29:54.900Z,95215.21
2018-12-14T00:32:24.152Z,95213.49
2018-12-14T00:34:53.531Z,95220.86
2018-12-14T00:37:22.822Z,95219.38
2018-12-14T00:39:52.123Z,95213.70
2018-12-14T00:42:21.552Z,95218.33
2018-12-14T00:44:50.827Z,95223.06
2018-12-14T00:47:20.235Z,95220.39
2018-12-14T00:49:49.538Z,95216.38
2018-12-14T00:52:18.939Z,95220.19
2018-12-14T00:54:48.251Z,95217.27
2018-12-14T00:57:17.657Z,95221.09
2018-12-14T00:59:47.052Z,95221.81
2018-12-14T01:02:21.318Z,95221.52
2018-12-14T01:04:50.564Z,95222.48
2018-12-14T01:07:19.831Z,95212.80
2018-12-14T01:09:48.980Z,95220.82
2018-12-14T01:12:18.503Z,95216.70
2018-12-14T01:14:47.909Z,95216.98
2018-12-14T01:17:17.332Z,95212.27
2018-12-14T01:19:46.604Z,95212.68
2018-12-14T01:22:15.931Z,95216.08
2018-12-14T01:24:45.375Z,95215.47
2018-12-14T01:27:14.802Z,95216.28
2018-12-14T01:29:44.110Z,95220.82
2018-12-14T01:32:13.448Z,95227.31
2018-12-14T01:34:42.705Z,95226.70
2018-12-14T01:37:12.003Z,95222.77
2018-12-14T01:39:41.499Z,95219.63
2018-12-14T01:42:10.922Z,95212.21
2018-12-14T01:44:40.519Z,95217.97
2018-12-14T01:47:09.843Z,95219.53
2018-12-14T01:49:39.029Z,95210.78
2018-12-14T01:52:08.524Z,95214.13
2018-12-14T01:54:38.027Z,95211.89
2018-12-14T01:57:07.345Z,95213.23
2018-12-14T01:59:36.760Z,95210.70
2018-12-14T02:02:06.054Z,95208.02
2018-12-14T02:04:35.506Z,95203.57
2018-12-14T02:07:04.959Z,95204.20
2018-12-14T02:09:34.265Z,95209.73
2018-12-14T02:12:03.478Z,95210.88
2018-12-14T02:14:32.874Z,95210.88
2018-12-14T02:17:32.911Z,95216.72
2018-12-14T02:20:02.177Z,95213.23
2018-12-14T02:22:31.622Z,95209.13
2018-12-14T02:25:00.791Z,95201.09
2018-12-14T02:27:30.100Z,95196.27
2018-12-14T02:29:59.316Z,95195.31
2018-12-14T02:32:28.592Z,95198.04
2018-12-14T02:34:57.973Z,95205.11
2018-12-14T02:37:27.297Z,95201.91
2018-12-14T02:39:56.697Z,95203.39
2018-12-14T02:42:25.999Z,95206.45
2018-12-14T02:44:55.412Z,95204.39
2018-12-14T02:47:24.706Z,95207.58
2018-12-14T02:49:54.174Z,95206.50
2018-12-14T02:52:23.456Z,95201.77
2018-12-14T02:54:53.002Z,95205.25
2018-12-14T02:57:22.427Z,95204.52
2018-12-14T02:59:51.702Z,95202.34
2018-12-14T03:02:21.060Z,95199.09
2018-12-14T03:04:50.433Z,95200.52
2018-12-14T03:07:19.643Z,95197.63
2018-12-14T03:09:48.939Z,95207.31
2018-12-14T03:12:18.420Z,95209.67
2018-12-14T03:14:47.841Z,95200.92
2018-12-14T03:17:17.491Z,95203.94
2018-12-14T03:19:47.110Z,95208.23
2018-12-14T03:22:16.816Z,95210.83
2018-12-14T03:24:46.484Z,95211.03
2018-12-14T03:27:15.793Z,95204.52
2018-12-14T03:29:45.167Z,95202.51
2018-12-14T03:32:14.682Z,95202.16
2018-12-14T03:34:44.071Z,95197.02
2018-12-14T03:37:13.284Z,95188.38
2018-12-14T03:39:42.693Z,95185.41
2018-12-14T03:42:12.293Z,95188.61
2018-12-14T03:44:41.608Z,95187.38
2018-12-14T03:47:11.116Z,95192.30
2018-12-14T03:49:40.487Z,95181.20
2018-12-14T03:52:09.906Z,95177.30
2018-12-14T03:54:39.031Z,95185.14
2018-12-14T03:57:08.319Z,95182.35
2018-12-14T03:59:37.600Z,95184.13
2018-12-14T04:02:07.003Z,95201.72
2018-12-14T04:04:36.231Z,95204.05
2018-12-14T04:07:05.421Z,95200.47
2018-12-14T04:09:34.731Z,95199.31
2018-12-14T04:12:04.128Z,95206.54
2018-12-14T04:14:33.612Z,95207.97
2018-12-14T04:17:02.960Z,95202.53
2018-12-14T04:19:32.310Z,95210.55
2018-12-14T04:22:01.633Z,95211.30
2018-12-14T04:24:30.944Z,95215.90
2018-12-14T04:27:00.236Z,95218.47
2018-12-14T04:29:29.636Z,95214.98
2018-12-14T04:31:59.152Z,95209.45
2018-12-14T04:34:28.531Z,95214.91
2018-12-14T04:36:57.761Z,95213.05
2018-12-14T04:39:27.137Z,95210.98
2018-12-14T04:41:56.360Z,95215.81
2018-12-14T04:44:25.764Z,95218.91
2018-12-14T04:46:55.328Z,95223.25
2018-12-14T04:49:24.820Z,95216.22
2018-12-14T04:51:54.192Z,95213.98
2018-12-14T04:54:23.463Z,95214.70
2018-12-14T04:56:53.002Z,95209.35
2018-12-14T04:59:22.606Z,95208.63
2018-12-14T05:01:51.879Z,95216.05
2018-12-14T05:04:21.293Z,95210.98
2018-12-14T05:06:50.693Z,95215.42
2018-12-14T05:09:20.092Z,95217.38
2018-12-14T05:11:49.638Z,95210.80
2018-12-14T05:14:19.277Z,95213.30
2018-12-14T05:16:48.404Z,95211.88
2018-12-14T05:19:17.927Z,95208.34
2018-12-14T05:21:47.392Z,95207.16
2018-12-14T05:24:17.203Z,95209.63
2018-12-14T05:26:46.634Z,95207.52
2018-12-14T05:29:15.948Z,95205.33
2018-12-14T05:31:45.010Z,95214.02
2018-12-14T05:34:14.320Z,95214.31
2018-12-14T05:36:43.840Z,95223.48
2018-12-14T05:39:13.187Z,95234.16
2018-12-14T05:41:42.684Z,95234.78
2018-12-14T05:44:12.052Z,95243.27
2018-12-14T05:46:41.332Z,95244.32
2018-12-14T05:49:10.672Z,95239.35
2018-12-14T05:51:40.012Z,95244.00
2018-12-14T05:54:09.904Z,95243.05
2018-12-14T05:56:39.582Z,95252.06
2018-12-14T05:59:09.060Z,95241.77
2018-12-14T06:01:38.514Z,95244.80
2018-12-14T06:04:08.366Z,95256.08
2018-12-14T06:06:37.744Z,95255.02
2018-12-14T06:09:08.099Z,95259.27
2018-12-14T06:11:37.724Z,95256.30
2018-12-14T06:14:08.188Z,95257.40
2018-12-14T06:16:37.733Z,95255.95
2018-12-14T06:19:07.107Z,95254.55
2018-12-14T06:21:36.524Z,95256.03
2018-12-14T06:24:05.801Z,95253.80
2018-12-14T06:26:35.170Z,95255.31
2018-12-14T06:29:04.613Z,95261.19
2018-12-14T06:31:33.895Z,95267.36
2018-12-14T06:34:03.207Z,95271.90
2018-12-14T06:36:32.411Z,95269.48
2018-12-14T06:39:02.231Z,95273.53
2018-12-14T06:41:31.510Z,95277.52
2018-12-14T06:44:00.842Z,95286.30
2018-12-14T06:46:30.094Z,95284.67
2018-12-14T06:48:59.318Z,95292.84
2018-12-14T06:51:28.618Z,95289.35
2018-12-14T06:53:57.927Z,95288.02
2018-12-14T06:56:27.200Z,95294.56
2018-12-14T06:58:56.308Z,95299.45
2018-12-14T07:01:25.508Z,95297.78
2018-12-14T07:03:54.821Z,95300.97
2018-12-14T07:06:24.226Z,95302.30
2018-12-14T07:08:53.615Z,95302.55
2018-12-14T07:11:23.007Z,95305.09
2018-12-14T07:13:52.431Z,95309.02
2018-12-14T07:16:21.915Z,95304.38
2018-12-14T07:18:51.341Z,95309.25
2018-12-14T07:21:20.540Z,95307.86
2018-12-14T07:23:49.842Z,95314.98
2018-12-14T07:26:19.248Z,95318.19
2018-12-14T07:28:49.099Z,95321.77
2018-12-14T07:31:18.351Z,95324.36
2018-12-14T07:33:47.747Z,95321.34
2018-12-14T07:36:17.052Z,95322.38
2018-12-14T07:38:48.224Z,95326.60
2018-12-14T07:41:17.491Z,95325.89
2018-12-14T07:43:46.820Z,95323.40
2018-12-14T07:46:16.408Z,95321.39
2018-12-14T07:48:45.856Z,95323.97
2018-12-14T07:51:15.119Z,95319.44
2018-12-14T07:53:44.430Z,95321.20
2018-12-14T07:56:13.715Z,95322.84
2018-12-14T07:58:43.097Z,95323.06
2018-12-14T08:01:12.358Z,95329.44
2018-12-14T08:03:41.815Z,95327.84
2018-12-14T08:06:11.132Z,95330.34
2018-12-14T08:08:40.560Z,95326.42
2018-12-14T08:11:09.847Z,95324.98
2018-12-14T08:13:39.154Z,95329.91
2018-12-14T08:16:08.447Z,95330.53
2018-12-14T08:18:37.752Z,95330.59
2018-12-14T08:21:07.061Z,95331.09
2018-12-14T08:23:36.458Z,95325.70
2018-12-14T08:26:05.834Z,95324.42
2018-12-14T08:28:35.152Z,95319.50
2018-12-14T08:31:04.540Z,95318.69
2018-12-14T08:33:33.870Z,95314.02
2018-12-14T08:36:03.055Z,95314.63
2018-12-14T08:38:32.355Z,95312.18
2018-12-14T08:41:01.844Z,95311.22
2018-12-14T08:43:31.143Z,95307.31
2018-12-14T08:46:00.554Z,95307.02
2018-12-14T08:48:30.024Z,95307.92
2018-12-14T08:50:59.377Z,95308.94
2018-12-14T08:53:28.945Z,95301.59
2018-12-14T08:55:58.437Z,95306.94
2018-12-14T08:58:27.788Z,95309.17
2018-12-14T09:00:57.191Z,95293.21
2018-12-14T09:03:26.596Z,95292.64
2018-12-14T09:05:55.903Z,95293.84
2018-12-14T09:08:25.285Z,95300.23
2018-12-14T09:10:54.506Z,95287.43
2018-12-14T09:13:24.265Z,95291.63
2018-12-14T09:15:53.611Z,95279.35
2018-12-14T09:18:22.703Z,95284.70
2018-12-14T09:20:52.011Z,95290.72
2018-12-14T09:23:21.424Z,95283.89
2018-12-14T09:25:50.738Z,95292.06
2018-12-14T09:28:20.015Z,95285.37
2018-12-14T09:30:49.332Z,95279.40
2018-12-14T09:33:18.815Z,95281.03
2018-12-14T09:35:48.219Z,95271.64
2018-12-14T09:38:17.536Z,95263.34
2018-12-14T09:40:46.925Z,95267.22
2018-12-14T09:43:16.246Z,95268.45
2018-12-14T09:45:45.425Z,95264.61
2018-12-14T09:48:14.645Z,95264.00
2018-12-14T09:50:43.934Z,95267.11
2018-12-14T09:53:14.332Z,95257.91
2018-12-14T09:55:43.459Z,95256.49
2018-12-14T09:58:12.663Z,95261.94
2018-12-14T10:00:41.871Z,95261.09
2018-12-14T10:03:11.364Z,95261.41
2018-12-14T10:05:40.869Z,95266.77
2018-12-14T10:08:10.299Z,95258.64
2018-12-14T10:10:39.952Z,95258.94
2018-12-14T10:13:09.531Z,95259.46
2018-12-14T10:15:38.872Z,95259.66
2018-12-14T10:18:08.186Z,95245.81
2018-12-14T10:20:37.392Z,95237.48
2018-12-14T10:23:06.686Z,95235.10
2018-12-14T10:25:36.107Z,95225.06
2018-12-14T10:28:05.414Z,95221.00
2018-12-14T10:30:34.706Z,95225.97
2018-12-14T10:33:03.900Z,95228.41
2018-12-14T10:35:33.111Z,95217.27
2018-12-14T10:38:02.397Z,95213.58
2018-12-14T10:40:31.894Z,95213.93
2018-12-14T10:43:01.296Z,95222.08
2018-12-14T10:45:30.655Z,95225.53
2018-12-14T10:47:59.918Z,95222.63
2018-12-14T10:50:38.742Z,95227.55
2018-12-14T10:53:04.653Z,95223.03
2018-12-14T10:55:34.161Z,95214.74
2018-12-14T10:58:03.729Z,95221.09
2018-12-14T11:00:38.036Z,95221.44
2018-12-14T11:03:07.417Z,95213.78
2018-12-14T11:05:36.700Z,95210.00
2018-12-14T11:08:05.986Z,95199.39
2018-12-14T11:10:35.091Z,95198.54
2018-12-14T11:13:04.303Z,95200.20
2018-12-14T11:15:33.601Z,95203.61
2018-12-14T11:18:03.082Z,95204.66
2018-12-14T11:20:32.488Z,95201.80
2018-12-14T11:23:01.787Z,95195.11
2018-12-14T11:25:31.203Z,95199.64
2018-12-14T11:28:00.499Z,95197.70
2018-12-14T11:30:29.806Z,95197.78
2018-12-14T11:32:59.212Z,95186.47
2018-12-14T11:35:28.520Z,95185.52
2018-12-14T11:37:57.825Z,95193.16
2018-12-14T11:40:27.308Z,95199.94
2018-12-14T11:42:56.603Z,95200.38
2018-12-14T11:45:25.926Z,95197.30
2018-12-14T11:47:55.329Z,95190.63
2018-12-14T11:50:24.729Z,95180.44
2018-12-14T11:52:54.042Z,95178.36
2018-12-14T11:55:23.432Z,95175.16
2018-12-14T11:57:52.923Z,95169.75
2018-12-14T12:00:22.376Z,95168.70
2018-12-14T12:02:51.648Z,95168.70
2018-12-14T12:05:20.947Z,95175.73
2018-12-14T12:07:50.503Z,95166.66
2018-12-14T12:10:19.768Z,95170.13
2018-12-14T12:12:49.260Z,95164.16
2018-12-14T12:15:18.682Z,95161.52
2018-12-14T12:17:49.526Z,95160.87
2018-12-14T12:20:19.168Z,95158.98
2018-12-14T12:22:48.668Z,95155.32
2018-12-14T12:25:18.007Z,95160.49
2018-12-14T12:27:47.219Z,95156.86
2018-12-14T12:30:16.623Z,95160.87
2018-12-14T12:32:46.028Z,95158.20
2018-12-14T12:35:15.236Z,95168.98
2018-12-14T12:37:44.532Z,95175.09
2018-12-14T12:40:13.924Z,95169.05
2018-12-14T12:42:43.414Z,95168.52
2018-12-14T12:45:12.669Z,95165.84
2018-12-14T12:47:41.938Z,95171.00
2018-12-14T12:50:11.287Z,95169.22
2018-12-14T12:52:40.636Z,95177.77
2018-12-14T12:55:09.941Z,95170.03
2018-12-14T12:57:39.255Z,95181.17
2018-12-14T13:00:08.895Z,95179.42
2018-12-14T13:02:38.037Z,95179.05
2018-12-14T13:05:07.165Z,95177.54
2018-12-14T13:07:36.445Z,95165.33
2018-12-14T13:10:05.747Z,95171.67
2018-12-14T13:12:35.052Z,95168.73
2018-12-14T13:15:04.660Z,95171.13
2018-12-14T13:17:34.068Z,95180.30
2018-12-14T13:20:03.469Z,95181.84
2018-12-14T13:22:32.668Z,95176.05
2018-12-14T13:25:01.996Z,95163.70
2018-12-14T13:27:31.271Z,95177.56
2018-12-14T13:30:00.764Z,95174.63
2018-12-14T13:32:29.983Z,95170.41
2018-12-14T13:34:59.371Z,95182.19
2018-12-14T13:37:28.771Z,95171.98
2018-12-14T13:39:57.903Z,95164.97
2018-12-14T13:42:27.286Z,95171.52
2018-12-14T13:44:56.835Z,95164.97
2018-12-14T13:47:26.292Z,95172.98
2018-12-14T13:49:55.686Z,95177.56
2018-12-14T13:52:25.044Z,95179.38
2018-12-14T13:54:54.400Z,95180.68
2018-12-14T13:57:23.604Z,95175.80
2018-12-14T13:59:52.913Z,95185.83
2018-12-14T14:02:22.214Z,95183.91
2018-12-14T14:04:51.502Z,95177.68
2018-12-14T14:07:21.012Z,95167.85
2018-12-14T14:09:50.406Z,95172.08
2018-12-14T14:12:19.743Z,95173.99
2018-12-14T14:14:52.962Z,95175.59
2018-12-14T14:17:20.474Z,95178.24
2018-12-14T14:19:50.128Z,95165.67
2018-12-14T14:22:19.656Z,95180.30
2018-12-14T14:24:49.181Z,95182.53
2018-12-14T14:27:18.397Z,95182.13
2018-12-14T14:29:47.690Z,95181.48
2018-12-14T14:32:17.107Z,95192.01
2018-12-14T14:34:46.312Z,95194.91
2018-12-14T14:37:15.593Z,95193.23
2018-12-14T14:39:44.797Z,95204.67
2018-12-14T14:42:14.101Z,95210.34
2018-12-14T14:44:43.579Z,95205.29
2018-12-14T14:47:12.864Z,95204.66
2018-12-14T14:49:42.187Z,95206.66
2018-12-14T14:52:11.604Z,95203.78
2018-12-14T14:54:41.012Z,95203.63
2018-12-14T14:57:10.307Z,95205.06
2018-12-14T14:59:39.625Z,95205.58
2018-12-14T15:02:09.017Z,95208.23
2018-12-14T15:04:38.508Z,95209.73
2018-12-14T15:07:07.920Z,95207.93
2018-12-14T15:09:37.115Z,95207.27
2018-12-14T15:12:06.423Z,95203.61
2018-12-14T15:14:35.720Z,95203.81
2018-12-14T15:17:05.131Z,95205.80
2018-12-14T15:19:34.535Z,95196.24
2018-12-14T15:22:04.729Z,95203.48
2018-12-14T15:24:34.368Z,95198.02
2018-12-14T15:27:04.484Z,95201.23
2018-12-14T15:29:33.974Z,95204.41
2018-12-14T15:32:03.391Z,95206.59
2018-12-14T15:34:32.592Z,95215.57
2018-12-14T15:37:01.796Z,95205.91
2018-12-14T15:39:31.088Z,95208.55
2018-12-14T15:42:00.401Z,95207.03
2018-12-14T15:44:29.805Z,95207.28
2018-12-14T15:46:59.191Z,95212.31
2018-12-14T15:49:28.507Z,95212.16
2018-12-14T15:51:57.914Z,95215.52
2018-12-14T15:54:27.323Z,95209.02
2018-12-14T15:56:56.624Z,95208.36
2018-12-14T15:59:26.015Z,95211.33
2018-12-14T16:01:55.315Z,95212.73
2018-12-14T16:04:24.629Z,95214.59
2018-12-14T16:06:54.201Z,95204.87
2018-12-14T16:09:23.511Z,95196.14
2018-12-14T16:11:52.925Z,95204.87
2018-12-14T16:14:22.263Z,95209.98
2018-12-14T16:16:51.648Z,95214.46
2018-12-14T16:19:21.019Z,95223.11
2018-12-14T16:21:50.535Z,95199.42
2018-12-14T16:24:19.836Z,95216.97
2018-12-14T16:26:49.233Z,95214.65
2018-12-14T16:29:18.645Z,95221.28
2018-12-14T16:31:47.968Z,95225.30
2018-12-14T16:34:17.363Z,95224.63
2018-12-14T16:36:46.668Z,95223.27
2018-12-14T16:39:16.470Z,95215.33
2018-12-14T16:41:45.790Z,95208.19
2018-12-14T16:44:15.074Z,95206.24
2018-12-14T16:46:44.398Z,95219.98
2018-12-14T16:49:13.563Z,95224.09
2018-12-14T16:51:42.698Z,95216.20
2018-12-14T16:54:12.168Z,95220.04
2018-12-14T16:56:41.595Z,95220.42
2018-12-14T16:59:10.979Z,95224.05
2018-12-14T17:01:40.280Z,95218.44
2018-12-14T17:04:09.574Z,95217.62
2018-12-14T17:06:38.791Z,95211.31
2018-12-14T17:09:08.091Z,95209.89
2018-12-14T17:11:37.194Z,95206.86
2018-12-14T17:14:06.519Z,95201.66
2018-12-14T17:16:35.892Z,95202.36
2018-12-14T17:19:05.281Z,95205.58
2018-12-14T17:21:34.584Z,95207.53
2018-12-14T17:24:03.883Z,95197.00
2018-12-14T17:26:33.196Z,95194.73
2018-12-14T17:29:02.647Z,95196.56
2018-12-14T17:31:32.009Z,95189.06
2018-12-14T17:34:01.308Z,95183.13
2018-12-14T17:36:30.657Z,95179.19
2018-12-14T17:38:59.933Z,95170.99
2018-12-14T17:41:29.403Z,95164.99
2018-12-14T17:43:58.543Z,95179.28
2018-12-14T17:46:28.195Z,95170.99
2018-12-14T17:48:57.434Z,95168.63
2018-12-14T17:51:26.864Z,95177.63
2018-12-14T17:53:56.244Z,95177.75
2018-12-14T17:56:25.653Z,95181.93
2018-12-14T17:58:55.049Z,95183.59
2018-12-14T18:01:24.296Z,95185.48
2018-12-14T18:03:53.653Z,95182.14
2018-12-14T18:06:22.944Z,95185.39
2018-12-14T18:08:52.403Z,95186.47
2018-12-14T18:11:21.687Z,95186.61
2018-12-14T18:13:50.867Z,95189.75
2018-12-14T18:16:20.267Z,95192.28
2018-12-14T18:18:49.547Z,95198.22
2018-12-14T18:21:19.017Z,95200.42
2018-12-14T18:23:48.266Z,95183.18
2018-12-14T18:26:17.503Z,95176.23
2018-12-14T18:28:46.856Z,95180.51
2018-12-14T18:31:16.219Z,95180.59
2018-12-14T18:33:45.524Z,95174.42
2018-12-14T18:36:14.815Z,95178.01
2018-12-14T18:38:43.902Z,95177.54
2018-12-14T18:41:13.212Z,95178.36
2018-12-14T18:43:42.328Z,95183.09
2018-12-14T18:46:11.512Z,95171.28
2018-12-14T18:48:40.783Z,95184.11
2018-12-14T18:51:10.248Z,95172.12
2018-12-14T18:53:41.618Z,95182.34
2018-12-14T18:56:10.747Z,95183.59
2018-12-14T18:58:39.907Z,95182.19
2018-12-14T19:01:09.192Z,95184.46
2018-12-14T19:03:38.623Z,95190.39
2018-12-14T19:06:07.957Z,95186.09
2018-12-14T19:08:37.255Z,95188.47
2018-12-14T19:11:36.979Z,95185.83
2018-12-14T19:14:06.334Z,95196.77
2018-12-14T19:16:35.738Z,95200.55
2018-12-14T19:19:04.951Z,95202.95
2018-12-14T19:21:34.336Z,95191.53
2018-12-14T19:24:03.669Z,95195.22
2018-12-14T19:26:32.854Z,95198.11
2018-12-14T19:29:02.232Z,95210.00
2018-12-14T19:31:31.350Z,95206.72
2018-12-14T19:34:00.653Z,95201.19
2018-12-14T19:36:30.893Z,95204.91
2018-12-14T19:39:00.377Z,95208.59
2018-12-14T19:41:29.860Z,95208.02
2018-12-14T19:43:58.984Z,95207.70
2018-12-14T19:46:28.364Z,95200.52
2018-12-14T19:48:57.496Z,95197.41
2018-12-14T19:51:26.869Z,95191.80
2018-12-14T19:53:56.199Z,95191.50
2018-12-14T19:56:25.447Z,95189.61
2018-12-14T19:58:54.785Z,95197.90
2018-12-14T20:01:24.040Z,95202.67
2018-12-14T20:03:53.271Z,95188.19
2018-12-14T20:06:22.704Z,95187.55
2018-12-14T20:08:51.935Z,95187.55
2018-12-14T20:11:20.883Z,95190.77
2018-12-14T20:13:50.280Z,95191.69
2018-12-14T20:16:19.774Z,95197.59
2018-12-14T20:18:49.290Z,95204.73
2018-12-14T20:21:18.688Z,95210.17
2018-12-14T20:23:47.900Z,95199.37
2018-12-14T20:26:17.178Z,95201.36
2018-12-14T20:28:46.503Z,95195.72
2018-12-14T20:31:15.895Z,95205.11
2018-12-14T20:33:45.212Z,95200.01
2018-12-14T20:36:14.547Z,95198.63
2018-12-14T20:38:43.900Z,95205.77
2018-12-14T20:41:13.327Z,95204.78
2018-12-14T20:43:42.610Z,95200.95
2018-12-14T20:46:12.009Z,95200.95
2018-12-14T20:48:41.510Z,95197.20
2018-12-14T20:51:10.933Z,95195.58
2018-12-14T20:53:40.250Z,95198.56
2018-12-14T20:56:09.723Z,95203.71
2018-12-14T20:58:39.123Z,95202.05
2018-12-14T21:01:08.436Z,95198.19
2018-12-14T21:03:37.763Z,95199.06
2018-12-14T21:06:07.130Z,95196.23
2018-12-14T21:08:36.339Z,95192.31
2018-12-14T21:11:05.738Z,95192.22
2018-12-14T21:13:35.147Z,95190.72
2018-12-14T21:16:04.363Z,95194.00
2018-12-14T21:18:33.640Z,95203.19
2018-12-14T21:21:02.787Z,95201.02
2018-12-14T21:23:32.046Z,95197.49
2018-12-14T21:26:01.252Z,95203.45
2018-12-14T21:28:30.446Z,95194.88
2018-12-14T21:30:59.831Z,95189.98
2018-12-14T21:33:29.256Z,95173.31
2018-12-14T21:35:58.632Z,95176.66
2018-12-14T21:38:27.887Z,95167.38
2018-12-14T21:40:57.251Z,95163.20
2018-12-14T21:43:26.556Z,95156.35
2018-12-14T21:45:55.865Z,95146.53
2018-12-14T21:48:25.173Z,95140.21
2018-12-14T21:50:54.656Z,95135.63
2018-12-14T21:53:23.960Z,95145.42
2018-12-14T21:55:53.268Z,95132.70
2018-12-14T21:58:22.666Z,95127.59
2018-12-14T22:00:51.975Z,95120.64
2018-12-14T22:03:21.359Z,95129.28
2018-12-14T22:05:50.587Z,95129.50
2018-12-14T22:08:20.074Z,95132.13
2018-12-14T22:10:49.587Z,95137.84
2018-12-14T22:13:18.881Z,95138.82
2018-12-14T22:15:48.182Z,95134.80
2018-12-14T22:18:17.487Z,95129.86
2018-12-14T22:20:46.788Z,95125.27
2018-12-14T22:23:16.007Z,95123.74
2018-12-14T22:25:45.207Z,95128.33
2018-12-14T22:28:14.689Z,95128.78
2018-12-14T22:30:43.984Z,95127.81
2018-12-14T22:33:13.387Z,95120.64
2018-12-14T22:35:42.782Z,95115.98
2018-12-14T22:38:12.102Z,95117.61
2018-12-14T22:40:41.512Z,95123.69
2018-12-14T22:43:10.899Z,95121.42
2018-12-14T22:45:40.120Z,95116.36
2018-12-14T22:48:09.514Z,95108.53
2018-12-14T22:50:38.829Z,95111.65
2018-12-14T22:53:08.218Z,95115.81
2018-12-14T22:55:37.417Z,95102.69
2018-12-14T22:58:06.616Z,95096.30
2018-12-14T23:00:39.979Z,95100.41
2018-12-14T23:03:09.217Z,95101.89
2018-12-14T23:05:38.620Z,95096.83
2018-12-14T23:08:07.919Z,95093.19
2018-12-14T23:10:37.165Z,95087.78
2018-12-14T23:13:06.721Z,95092.11
2018-12-14T23:15:36.137Z,95101.63
2018-12-14T23:18:05.623Z,95100.73
2018-12-14T23:20:34.927Z,95101.98
2018-12-14T23:23:04.230Z,95092.45
2018-12-14T23:25:33.645Z,95094.16
2018-12-14T23:28:03.096Z,95092.97
2018-12-14T23:30:32.143Z,95088.20
2018-12-14T23:33:01.427Z,95086.48
2018-12-14T23:35:30.645Z,95088.78
2018-12-14T23:38:00.035Z,95095.09
2018-12-14T23:40:29.245Z,95106.46
2018-12-14T23:42:58.542Z,95110.04
2018-12-14T23:45:27.740Z,95108.95
2018-12-14T23:47:56.943Z,95107.16
2018-12-14T23:50:26.342Z,95106.78
2018-12-14T23:52:55.648Z,95100.83
2018-12-14T23:55:25.068Z,95094.08
2018-12-14T23:57:54.442Z,95096.06
